sensor_id;sensor_type;location;lat;lon;timestamp;pressure;altitude;pressure_sealevel;temperature;humidity
36502;BME280;25393;46.108;3.390;2023-05-03T00:01:38;98473.63;;;10.68;79.38
36502;BME280;25393;46.108;3.390;2023-05-03T00:04:06;98462.31;;;10.58;79.58
36502;BME280;25393;46.108;3.390;2023-05-03T00:06:33;98461.78;;;10.54;80.17
36502;BME280;25393;46.108;3.390;2023-05-03T00:09:00;98464.91;;;10.49;80.56
36502;BME280;25393;46.108;3.390;2023-05-03T00:11:28;98464.75;;;10.51;79.95
36502;BME280;25393;46.108;3.390;2023-05-03T00:13:55;98456.63;;;10.44;79.37
36502;BME280;25393;46.108;3.390;2023-05-03T00:16:21;98458.75;;;10.41;79.85
36502;BME280;25393;46.108;3.390;2023-05-03T00:18:48;98466.84;;;10.39;80.25
36502;BME280;25393;46.108;3.390;2023-05-03T00:21:14;98462.31;;;10.32;80.24
36502;BME280;25393;46.108;3.390;2023-05-03T00:23:41;98460.44;;;10.24;80.50
36502;BME280;25393;46.108;3.390;2023-05-03T00:26:08;98461.41;;;10.15;80.64
36502;BME280;25393;46.108;3.390;2023-05-03T00:28:34;98459.50;;;10.08;81.33
36502;BME280;25393;46.108;3.390;2023-05-03T00:31:08;98457.91;;;10.15;80.98
36502;BME280;25393;46.108;3.390;2023-05-03T00:33:35;98440.63;;;10.11;81.27
36502;BME280;25393;46.108;3.390;2023-05-03T00:36:12;98441.72;;;10.18;81.04
36502;BME280;25393;46.108;3.390;2023-05-03T00:38:40;98452.63;;;10.15;80.87
36502;BME280;25393;46.108;3.390;2023-05-03T00:41:10;98450.81;;;10.15;82.22
36502;BME280;25393;46.108;3.390;2023-05-03T00:43:38;98445.38;;;10.17;83.32
36502;BME280;25393;46.108;3.390;2023-05-03T00:46:05;98438.81;;;10.11;82.10
36502;BME280;25393;46.108;3.390;2023-05-03T00:48:44;98436.28;;;10.01;82.61
36502;BME280;25393;46.108;3.390;2023-05-03T00:51:13;98432.31;;;9.80;83.81
36502;BME280;25393;46.108;3.390;2023-05-03T00:53:43;98433.00;;;9.82;85.07
36502;BME280;25393;46.108;3.390;2023-05-03T00:56:10;98425.78;;;9.66;86.47
36502;BME280;25393;46.108;3.390;2023-05-03T00:58:37;98415.72;;;9.70;87.84
36502;BME280;25393;46.108;3.390;2023-05-03T01:01:06;98414.72;;;9.71;89.14
36502;BME280;25393;46.108;3.390;2023-05-03T01:03:34;98414.31;;;9.83;89.84
36502;BME280;25393;46.108;3.390;2023-05-03T01:06:16;98407.47;;;9.73;90.23
36502;BME280;25393;46.108;3.390;2023-05-03T01:08:49;98400.56;;;9.80;90.56
36502;BME280;25393;46.108;3.390;2023-05-03T01:11:29;98399.19;;;9.76;91.02
36502;BME280;25393;46.108;3.390;2023-05-03T01:14:15;98384.59;;;9.72;91.25
36502;BME280;25393;46.108;3.390;2023-05-03T01:16:48;98394.22;;;9.73;91.91
36502;BME280;25393;46.108;3.390;2023-05-03T01:19:32;98392.19;;;9.67;92.41
36502;BME280;25393;46.108;3.390;2023-05-03T01:25:09;98384.41;;;9.65;93.92
36502;BME280;25393;46.108;3.390;2023-05-03T01:27:40;98382.78;;;9.72;93.66
36502;BME280;25393;46.108;3.390;2023-05-03T01:30:08;98386.28;;;9.73;94.17
36502;BME280;25393;46.108;3.390;2023-05-03T01:35:22;98386.69;;;9.60;95.23
36502;BME280;25393;46.108;3.390;2023-05-03T01:37:51;98385.66;;;9.53;95.82
36502;BME280;25393;46.108;3.390;2023-05-03T01:40:18;98372.88;;;9.48;96.08
36502;BME280;25393;46.108;3.390;2023-05-03T01:42:46;98371.59;;;9.52;96.60
36502;BME280;25393;46.108;3.390;2023-05-03T01:45:14;98372.19;;;9.46;96.85
36502;BME280;25393;46.108;3.390;2023-05-03T01:47:41;98370.84;;;9.42;97.73
36502;BME280;25393;46.108;3.390;2023-05-03T01:50:10;98363.88;;;9.41;97.53
36502;BME280;25393;46.108;3.390;2023-05-03T01:52:39;98370.16;;;9.40;97.92
36502;BME280;25393;46.108;3.390;2023-05-03T01:55:09;98363.06;;;9.41;98.00
36502;BME280;25393;46.108;3.390;2023-05-03T01:57:35;98362.00;;;9.34;98.61
36502;BME280;25393;46.108;3.390;2023-05-03T02:00:05;98348.91;;;9.32;98.54
36502;BME280;25393;46.108;3.390;2023-05-03T02:02:33;98353.94;;;9.35;99.09
36502;BME280;25393;46.108;3.390;2023-05-03T02:04:59;98368.34;;;9.41;99.00
36502;BME280;25393;46.108;3.390;2023-05-03T02:07:26;98352.16;;;9.44;98.62
36502;BME280;25393;46.108;3.390;2023-05-03T02:09:52;98357.63;;;9.42;99.01
36502;BME280;25393;46.108;3.390;2023-05-03T02:12:19;98360.56;;;9.39;99.58
36502;BME280;25393;46.108;3.390;2023-05-03T02:14:45;98349.97;;;9.39;99.43
36502;BME280;25393;46.108;3.390;2023-05-03T02:17:12;98350.97;;;9.38;99.72
36502;BME280;25393;46.108;3.390;2023-05-03T02:19:39;98331.94;;;9.35;99.04
36502;BME280;25393;46.108;3.390;2023-05-03T02:22:06;98333.75;;;9.34;99.31
36502;BME280;25393;46.108;3.390;2023-05-03T02:24:32;98340.38;;;9.38;99.23
36502;BME280;25393;46.108;3.390;2023-05-03T02:27:02;98329.13;;;9.36;99.46
36502;BME280;25393;46.108;3.390;2023-05-03T02:29:31;98335.09;;;9.38;99.28
36502;BME280;25393;46.108;3.390;2023-05-03T02:31:58;98329.81;;;9.38;99.21
36502;BME280;25393;46.108;3.390;2023-05-03T02:34:25;98317.69;;;9.36;98.72
36502;BME280;25393;46.108;3.390;2023-05-03T02:36:52;98324.19;;;9.41;97.99
36502;BME280;25393;46.108;3.390;2023-05-03T02:39:19;98325.25;;;9.48;97.35
36502;BME280;25393;46.108;3.390;2023-05-03T02:41:45;98317.75;;;9.44;96.63
36502;BME280;25393;46.108;3.390;2023-05-03T02:44:12;98310.81;;;9.43;95.84
36502;BME280;25393;46.108;3.390;2023-05-03T02:46:41;98319.13;;;9.48;96.35
36502;BME280;25393;46.108;3.390;2023-05-03T02:49:08;98319.75;;;9.42;96.84
36502;BME280;25393;46.108;3.390;2023-05-03T02:51:36;98320.16;;;9.55;95.90
36502;BME280;25393;46.108;3.390;2023-05-03T02:54:03;98325.66;;;9.62;94.52
36502;BME280;25393;46.108;3.390;2023-05-03T02:56:29;98315.59;;;9.65;92.69
36502;BME280;25393;46.108;3.390;2023-05-03T02:58:56;98321.41;;;9.69;89.59
36502;BME280;25393;46.108;3.390;2023-05-03T03:01:22;98316.75;;;9.63;86.22
36502;BME280;25393;46.108;3.390;2023-05-03T03:03:49;98315.06;;;9.36;85.75
36502;BME280;25393;46.108;3.390;2023-05-03T03:06:16;98317.91;;;9.17;86.53
36502;BME280;25393;46.108;3.390;2023-05-03T03:08:42;98318.59;;;9.01;87.98
36502;BME280;25393;46.108;3.390;2023-05-03T03:11:09;98317.84;;;8.91;89.21
36502;BME280;25393;46.108;3.390;2023-05-03T03:13:38;98298.81;;;8.87;89.63
36502;BME280;25393;46.108;3.390;2023-05-03T03:16:09;98309.91;;;8.91;90.07
36502;BME280;25393;46.108;3.390;2023-05-03T03:18:38;98300.56;;;8.96;86.75
36502;BME280;25393;46.108;3.390;2023-05-03T03:21:04;98300.38;;;8.80;85.85
36502;BME280;25393;46.108;3.390;2023-05-03T03:23:31;98298.66;;;8.71;86.86
36502;BME280;25393;46.108;3.390;2023-05-03T03:25:57;98303.50;;;8.58;86.74
36502;BME280;25393;46.108;3.390;2023-05-03T03:28:24;98298.72;;;8.44;87.49
36502;BME280;25393;46.108;3.390;2023-05-03T03:30:50;98304.03;;;8.34;87.91
36502;BME280;25393;46.108;3.390;2023-05-03T03:33:17;98307.09;;;8.12;88.02
36502;BME280;25393;46.108;3.390;2023-05-03T03:35:44;98297.34;;;8.13;87.42
36502;BME280;25393;46.108;3.390;2023-05-03T03:38:10;98303.75;;;8.10;87.41
36502;BME280;25393;46.108;3.390;2023-05-03T03:40:37;98299.66;;;7.98;88.70
36502;BME280;25393;46.108;3.390;2023-05-03T03:43:04;98304.47;;;8.02;90.34
36502;BME280;25393;46.108;3.390;2023-05-03T03:45:31;98308.59;;;7.87;92.88
36502;BME280;25393;46.108;3.390;2023-05-03T03:47:57;98307.03;;;7.85;94.71
36502;BME280;25393;46.108;3.390;2023-05-03T03:50:24;98312.06;;;7.88;95.74
36502;BME280;25393;46.108;3.390;2023-05-03T03:52:51;98310.38;;;7.87;96.13
36502;BME280;25393;46.108;3.390;2023-05-03T03:55:18;98307.25;;;7.74;95.86
36502;BME280;25393;46.108;3.390;2023-05-03T03:57:47;98304.91;;;7.61;96.84
36502;BME280;25393;46.108;3.390;2023-05-03T04:00:16;98323.63;;;7.68;98.01
36502;BME280;25393;46.108;3.390;2023-05-03T04:02:46;98319.44;;;7.75;96.96
36502;BME280;25393;46.108;3.390;2023-05-03T04:05:13;98316.38;;;7.79;96.76
36502;BME280;25393;46.108;3.390;2023-05-03T04:07:41;98319.69;;;7.81;96.02
36502;BME280;25393;46.108;3.390;2023-05-03T04:10:08;98325.13;;;7.80;96.40
36502;BME280;25393;46.108;3.390;2023-05-03T04:12:35;98328.38;;;7.74;95.13
36502;BME280;25393;46.108;3.390;2023-05-03T04:15:03;98318.78;;;7.73;95.08
36502;BME280;25393;46.108;3.390;2023-05-03T04:17:30;98323.09;;;7.74;96.37
36502;BME280;25393;46.108;3.390;2023-05-03T04:19:58;98327.19;;;7.86;96.15
36502;BME280;25393;46.108;3.390;2023-05-03T04:22:25;98321.63;;;7.89;94.60
36502;BME280;25393;46.108;3.390;2023-05-03T04:24:51;98332.03;;;7.90;92.60
36502;BME280;25393;46.108;3.390;2023-05-03T04:27:19;98334.28;;;7.85;91.92
36502;BME280;25393;46.108;3.390;2023-05-03T04:29:49;98335.28;;;7.75;93.06
36502;BME280;25393;46.108;3.390;2023-05-03T04:32:19;98341.44;;;7.66;93.07
36502;BME280;25393;46.108;3.390;2023-05-03T04:34:48;98347.09;;;7.71;93.08
36502;BME280;25393;46.108;3.390;2023-05-03T04:37:20;98337.91;;;7.84;94.18
36502;BME280;25393;46.108;3.390;2023-05-03T04:39:47;98333.72;;;7.82;93.28
36502;BME280;25393;46.108;3.390;2023-05-03T04:42:13;98340.25;;;7.87;91.56
36502;BME280;25393;46.108;3.390;2023-05-03T04:44:41;98343.81;;;7.96;89.61
36502;BME280;25393;46.108;3.390;2023-05-03T04:47:07;98334.56;;;7.82;89.71
36502;BME280;25393;46.108;3.390;2023-05-03T04:49:36;98344.13;;;7.93;90.57
36502;BME280;25393;46.108;3.390;2023-05-03T04:52:05;98350.53;;;7.90;90.77
36502;BME280;25393;46.108;3.390;2023-05-03T04:54:32;98347.47;;;7.95;87.98
36502;BME280;25393;46.108;3.390;2023-05-03T04:56:58;98343.03;;;7.86;89.44
36502;BME280;25393;46.108;3.390;2023-05-03T04:59:25;98358.44;;;7.90;89.62
36502;BME280;25393;46.108;3.390;2023-05-03T05:01:51;98350.47;;;8.00;89.33
36502;BME280;25393;46.108;3.390;2023-05-03T05:04:21;98354.19;;;8.07;90.06
36502;BME280;25393;46.108;3.390;2023-05-03T05:06:50;98355.53;;;8.21;90.27
36502;BME280;25393;46.108;3.390;2023-05-03T05:09:26;98349.41;;;8.30;89.05
36502;BME280;25393;46.108;3.390;2023-05-03T05:11:53;98361.47;;;8.32;88.64
36502;BME280;25393;46.108;3.390;2023-05-03T05:14:22;98353.69;;;8.31;89.71
36502;BME280;25393;46.108;3.390;2023-05-03T05:16:51;98351.44;;;8.36;90.62
36502;BME280;25393;46.108;3.390;2023-05-03T05:19:21;98362.25;;;8.42;91.17
36502;BME280;25393;46.108;3.390;2023-05-03T05:21:51;98359.75;;;8.41;91.30
36502;BME280;25393;46.108;3.390;2023-05-03T05:24:20;98363.94;;;8.43;91.57
36502;BME280;25393;46.108;3.390;2023-05-03T05:26:50;98356.13;;;8.42;92.05
36502;BME280;25393;46.108;3.390;2023-05-03T05:29:20;98327.25;;;8.40;92.82
36502;BME280;25393;46.108;3.390;2023-05-03T05:31:47;98345.69;;;8.68;94.24
36502;BME280;25393;46.108;3.390;2023-05-03T05:34:15;98345.09;;;8.74;95.34
36502;BME280;25393;46.108;3.390;2023-05-03T05:36:41;98355.53;;;8.93;96.29
36502;BME280;25393;46.108;3.390;2023-05-03T05:39:08;98338.00;;;8.92;96.43
36502;BME280;25393;46.108;3.390;2023-05-03T05:41:35;98349.78;;;9.15;95.99
36502;BME280;25393;46.108;3.390;2023-05-03T05:44:01;98341.69;;;9.17;94.60
36502;BME280;25393;46.108;3.390;2023-05-03T05:46:28;98333.47;;;9.20;94.33
36502;BME280;25393;46.108;3.390;2023-05-03T05:48:54;98342.03;;;9.39;94.63
36502;BME280;25393;46.108;3.390;2023-05-03T05:51:21;98347.06;;;9.50;94.66
36502;BME280;25393;46.108;3.390;2023-05-03T05:53:47;98336.56;;;9.59;93.66
36502;BME280;25393;46.108;3.390;2023-05-03T05:56:20;98336.63;;;9.67;93.75
36502;BME280;25393;46.108;3.390;2023-05-03T05:58:50;98338.94;;;9.70;94.06
36502;BME280;25393;46.108;3.390;2023-05-03T06:01:20;98332.56;;;9.80;93.71
36502;BME280;25393;46.108;3.390;2023-05-03T06:03:49;98339.66;;;9.80;94.56
36502;BME280;25393;46.108;3.390;2023-05-03T06:06:15;98340.06;;;9.93;94.59
36502;BME280;25393;46.108;3.390;2023-05-03T06:08:45;98345.03;;;9.96;94.60
36502;BME280;25393;46.108;3.390;2023-05-03T06:11:15;98338.63;;;9.98;94.13
36502;BME280;25393;46.108;3.390;2023-05-03T06:13:44;98343.91;;;9.98;94.41
36502;BME280;25393;46.108;3.390;2023-05-03T06:16:11;98350.72;;;10.01;95.08
36502;BME280;25393;46.108;3.390;2023-05-03T06:18:37;98357.88;;;10.09;96.14
36502;BME280;25393;46.108;3.390;2023-05-03T06:21:04;98353.50;;;10.25;96.56
36502;BME280;25393;46.108;3.390;2023-05-03T06:23:31;98347.97;;;10.52;95.69
36502;BME280;25393;46.108;3.390;2023-05-03T06:25:58;98334.78;;;10.69;95.23
36502;BME280;25393;46.108;3.390;2023-05-03T06:28:25;98326.81;;;10.69;95.26
36502;BME280;25393;46.108;3.390;2023-05-03T06:30:51;98322.69;;;10.82;94.78
36502;BME280;25393;46.108;3.390;2023-05-03T06:33:19;98338.97;;;11.03;94.67
36502;BME280;25393;46.108;3.390;2023-05-03T06:35:45;98333.50;;;11.21;93.36
36502;BME280;25393;46.108;3.390;2023-05-03T06:38:21;98332.81;;;11.43;93.11
36502;BME280;25393;46.108;3.390;2023-05-03T06:40:50;98324.19;;;11.66;89.39
36502;BME280;25393;46.108;3.390;2023-05-03T06:43:18;98330.16;;;11.76;89.25
36502;BME280;25393;46.108;3.390;2023-05-03T06:45:50;98325.81;;;11.91;89.20
36502;BME280;25393;46.108;3.390;2023-05-03T06:48:17;98331.56;;;12.11;89.16
36502;BME280;25393;46.108;3.390;2023-05-03T06:50:50;98328.84;;;12.35;87.52
36502;BME280;25393;46.108;3.390;2023-05-03T06:53:20;98316.78;;;12.55;85.04
36502;BME280;25393;46.108;3.390;2023-05-03T06:55:50;98307.84;;;12.71;83.84
36502;BME280;25393;46.108;3.390;2023-05-03T06:58:27;98273.13;;;12.72;81.88
36502;BME280;25393;46.108;3.390;2023-05-03T07:00:54;98312.31;;;13.24;81.54
36502;BME280;25393;46.108;3.390;2023-05-03T07:03:22;98307.06;;;13.38;79.91
36502;BME280;25393;46.108;3.390;2023-05-03T07:05:49;98310.16;;;13.65;77.18
36502;BME280;25393;46.108;3.390;2023-05-03T07:08:15;98316.28;;;13.80;77.03
36502;BME280;25393;46.108;3.390;2023-05-03T07:10:49;98301.16;;;13.95;76.89
36502;BME280;25393;46.108;3.390;2023-05-03T07:13:18;98307.50;;;14.23;72.77
36502;BME280;25393;46.108;3.390;2023-05-03T07:15:45;98296.28;;;14.42;73.64
36502;BME280;25393;46.108;3.390;2023-05-03T07:18:14;98290.72;;;14.59;74.46
36502;BME280;25393;46.108;3.390;2023-05-03T07:20:40;98297.75;;;14.81;72.71
36502;BME280;25393;46.108;3.390;2023-05-03T07:23:07;98287.22;;;14.94;70.48
36502;BME280;25393;46.108;3.390;2023-05-03T07:25:34;98296.50;;;14.98;69.96
36502;BME280;25393;46.108;3.390;2023-05-03T07:28:00;98292.72;;;15.14;70.28
36502;BME280;25393;46.108;3.390;2023-05-03T07:30:27;98280.19;;;15.35;69.20
36502;BME280;25393;46.108;3.390;2023-05-03T07:32:54;98278.28;;;15.51;69.04
36502;BME280;25393;46.108;3.390;2023-05-03T07:35:21;98280.31;;;15.76;68.83
36502;BME280;25393;46.108;3.390;2023-05-03T07:37:48;98277.97;;;16.01;67.08
36502;BME280;25393;46.108;3.390;2023-05-03T07:40:15;98275.47;;;16.27;65.07
36502;BME280;25393;46.108;3.390;2023-05-03T07:42:44;98274.47;;;16.35;65.53
36502;BME280;25393;46.108;3.390;2023-05-03T07:45:11;98271.78;;;16.35;65.23
36502;BME280;25393;46.108;3.390;2023-05-03T07:47:37;98269.97;;;16.42;65.28
36502;BME280;25393;46.108;3.390;2023-05-03T07:50:05;98277.66;;;16.58;64.63
36502;BME280;25393;46.108;3.390;2023-05-03T07:52:36;98273.53;;;16.56;59.94
36502;BME280;25393;46.108;3.390;2023-05-03T07:55:03;98270.53;;;16.31;62.80
36502;BME280;25393;46.108;3.390;2023-05-03T07:57:31;98276.16;;;16.42;65.20
36502;BME280;25393;46.108;3.390;2023-05-03T07:59:57;98268.81;;;16.64;64.72
36502;BME280;25393;46.108;3.390;2023-05-03T08:02:24;98276.94;;;16.97;62.36
36502;BME280;25393;46.108;3.390;2023-05-03T08:04:51;98265.63;;;17.08;62.58
36502;BME280;25393;46.108;3.390;2023-05-03T08:07:18;98267.69;;;17.32;61.07
36502;BME280;25393;46.108;3.390;2023-05-03T08:09:45;98264.41;;;17.43;61.27
36502;BME280;25393;46.108;3.390;2023-05-03T08:12:14;98278.03;;;17.48;60.41
36502;BME280;25393;46.108;3.390;2023-05-03T08:14:41;98270.41;;;17.59;60.31
36502;BME280;25393;46.108;3.390;2023-05-03T08:17:07;98270.97;;;17.80;59.80
36502;BME280;25393;46.108;3.390;2023-05-03T08:19:34;98261.88;;;17.88;58.60
36502;BME280;25393;46.108;3.390;2023-05-03T08:22:01;98260.00;;;18.08;56.84
36502;BME280;25393;46.108;3.390;2023-05-03T08:24:28;98270.00;;;18.39;55.64
36502;BME280;25393;46.108;3.390;2023-05-03T08:26:55;98267.09;;;18.47;57.54
36502;BME280;25393;46.108;3.390;2023-05-03T08:29:21;98261.09;;;18.52;57.32
36502;BME280;25393;46.108;3.390;2023-05-03T08:31:49;98259.91;;;18.79;57.73
36502;BME280;25393;46.108;3.390;2023-05-03T08:34:19;98256.47;;;19.03;55.86
36502;BME280;25393;46.108;3.390;2023-05-03T08:36:45;98251.97;;;19.22;55.41
36502;BME280;25393;46.108;3.390;2023-05-03T08:39:14;98253.06;;;19.39;55.68
36502;BME280;25393;46.108;3.390;2023-05-03T08:41:41;98252.19;;;19.52;54.53
36502;BME280;25393;46.108;3.390;2023-05-03T08:44:10;98253.91;;;19.64;55.12
36502;BME280;25393;46.108;3.390;2023-05-03T08:46:37;98248.50;;;19.89;54.25
36502;BME280;25393;46.108;3.390;2023-05-03T08:49:04;98241.47;;;20.06;52.62
36502;BME280;25393;46.108;3.390;2023-05-03T08:51:38;98246.59;;;20.32;52.09
36502;BME280;25393;46.108;3.390;2023-05-03T08:54:06;98244.75;;;20.63;53.24
36502;BME280;25393;46.108;3.390;2023-05-03T08:56:39;98240.56;;;20.97;51.16
36502;BME280;25393;46.108;3.390;2023-05-03T08:59:07;98242.97;;;21.16;49.00
36502;BME280;25393;46.108;3.390;2023-05-03T09:01:35;98235.03;;;21.21;49.41
36502;BME280;25393;46.108;3.390;2023-05-03T09:04:02;98230.00;;;21.60;48.82
36502;BME280;25393;46.108;3.390;2023-05-03T09:06:29;98228.38;;;21.94;47.30
36502;BME280;25393;46.108;3.390;2023-05-03T09:08:59;98229.13;;;22.29;49.80
36502;BME280;25393;46.108;3.390;2023-05-03T09:11:31;98223.75;;;22.57;48.48
36502;BME280;25393;46.108;3.390;2023-05-03T09:16:39;98211.38;;;23.34;44.72
36502;BME280;25393;46.108;3.390;2023-05-03T09:19:07;98215.31;;;23.60;43.81
36502;BME280;25393;46.108;3.390;2023-05-03T09:21:41;98224.25;;;23.77;43.63
36502;BME280;25393;46.108;3.390;2023-05-03T09:26:45;98215.13;;;24.22;44.44
36502;BME280;25393;46.108;3.390;2023-05-03T09:29:30;98217.31;;;24.47;42.48
36502;BME280;25393;46.108;3.390;2023-05-03T09:31:58;98214.44;;;24.80;41.81
36502;BME280;25393;46.108;3.390;2023-05-03T09:34:26;98212.50;;;25.02;41.14
36502;BME280;25393;46.108;3.390;2023-05-03T09:36:52;98215.69;;;25.53;40.44
36502;BME280;25393;46.108;3.390;2023-05-03T09:39:20;98207.47;;;25.90;41.91
36502;BME280;25393;46.108;3.390;2023-05-03T09:41:50;98208.00;;;26.33;40.21
36502;BME280;25393;46.108;3.390;2023-05-03T09:44:39;98205.47;;;26.89;40.07
36502;BME280;25393;46.108;3.390;2023-05-03T09:47:06;98196.28;;;27.41;38.57
36502;BME280;25393;46.108;3.390;2023-05-03T09:49:33;98193.78;;;27.69;36.67
36502;BME280;25393;46.108;3.390;2023-05-03T09:52:01;98198.44;;;27.08;38.86
36502;BME280;25393;46.108;3.390;2023-05-03T09:54:28;98181.47;;;26.61;38.67
36502;BME280;25393;46.108;3.390;2023-05-03T09:56:59;98189.63;;;26.56;38.42
36502;BME280;25393;46.108;3.390;2023-05-03T09:59:27;98207.63;;;26.77;38.37
36502;BME280;25393;46.108;3.390;2023-05-03T10:01:55;98203.88;;;27.08;38.11
36502;BME280;25393;46.108;3.390;2023-05-03T10:04:26;98210.31;;;26.72;38.75
36502;BME280;25393;46.108;3.390;2023-05-03T10:06:57;98207.38;;;26.84;39.01
36502;BME280;25393;46.108;3.390;2023-05-03T10:09:31;98203.31;;;27.06;37.77
36502;BME280;25393;46.108;3.390;2023-05-03T10:12:03;98196.53;;;27.29;36.81
36502;BME280;25393;46.108;3.390;2023-05-03T10:14:32;98200.63;;;27.67;35.69
36502;BME280;25393;46.108;3.390;2023-05-03T10:17:03;98208.44;;;28.04;36.10
36502;BME280;25393;46.108;3.390;2023-05-03T10:19:38;98204.78;;;28.39;35.09
36502;BME280;25393;46.108;3.390;2023-05-03T10:22:07;98204.75;;;28.49;34.77
36502;BME280;25393;46.108;3.390;2023-05-03T10:24:36;98190.06;;;28.40;34.66
36502;BME280;25393;46.108;3.390;2023-05-03T10:27:07;98201.09;;;28.14;34.88
36502;BME280;25393;46.108;3.390;2023-05-03T10:32:31;98196.63;;;28.34;35.69
36502;BME280;25393;46.108;3.390;2023-05-03T10:35:09;98195.03;;;28.22;35.09
36502;BME280;25393;46.108;3.390;2023-05-03T10:37:40;98192.19;;;27.18;37.95
36502;BME280;25393;46.108;3.390;2023-05-03T10:40:09;98190.28;;;26.98;37.11
36502;BME280;25393;46.108;3.390;2023-05-03T10:42:37;98188.34;;;26.99;37.69
36502;BME280;25393;46.108;3.390;2023-05-03T10:45:06;98182.66;;;27.41;36.89
36502;BME280;25393;46.108;3.390;2023-05-03T10:47:34;98182.81;;;28.15;36.94
36502;BME280;25393;46.108;3.390;2023-05-03T10:55:18;98159.84;;;28.85;34.62
36502;BME280;25393;46.108;3.390;2023-05-03T10:57:55;98151.94;;;29.17;33.94
36502;BME280;25393;46.108;3.390;2023-05-03T11:03:25;98159.88;;;29.14;33.84
36502;BME280;25393;46.108;3.390;2023-05-03T11:05:56;98145.56;;;28.54;35.07
36502;BME280;25393;46.108;3.390;2023-05-03T11:08:24;98153.09;;;28.77;35.57
36502;BME280;25393;46.108;3.390;2023-05-03T11:10:57;98155.56;;;29.08;32.95
36502;BME280;25393;46.108;3.390;2023-05-03T11:13:25;98143.00;;;29.12;33.48
36502;BME280;25393;46.108;3.390;2023-05-03T11:15:53;98149.19;;;29.80;33.85
36502;BME280;25393;46.108;3.390;2023-05-03T11:18:23;98147.31;;;30.23;32.67
36502;BME280;25393;46.108;3.390;2023-05-03T11:20:52;98134.06;;;29.64;32.30
36502;BME280;25393;46.108;3.390;2023-05-03T11:23:28;98146.59;;;29.41;33.94
36502;BME280;25393;46.108;3.390;2023-05-03T11:25:55;98131.34;;;29.64;32.05
36502;BME280;25393;46.108;3.390;2023-05-03T11:28:24;98134.41;;;29.81;32.43
36502;BME280;25393;46.108;3.390;2023-05-03T11:30:54;98136.84;;;30.11;31.74
36502;BME280;25393;46.108;3.390;2023-05-03T11:33:27;98129.16;;;30.56;31.05
36502;BME280;25393;46.108;3.390;2023-05-03T11:35:54;98126.25;;;30.47;30.77
36502;BME280;25393;46.108;3.390;2023-05-03T11:38:23;98126.03;;;30.44;31.99
36502;BME280;25393;46.108;3.390;2023-05-03T11:40:50;98127.34;;;30.65;31.48
36502;BME280;25393;46.108;3.390;2023-05-03T11:43:19;98103.16;;;30.91;30.37
36502;BME280;25393;46.108;3.390;2023-05-03T11:45:47;98105.38;;;31.07;30.60
36502;BME280;25393;46.108;3.390;2023-05-03T11:48:16;98111.69;;;30.89;30.87
36502;BME280;25393;46.108;3.390;2023-05-03T11:50:51;98096.44;;;30.83;30.56
36502;BME280;25393;46.108;3.390;2023-05-03T11:53:24;98100.00;;;31.02;28.38
36502;BME280;25393;46.108;3.390;2023-05-03T11:55:53;98099.66;;;31.36;30.79
36502;BME280;25393;46.108;3.390;2023-05-03T11:58:26;98085.13;;;31.68;27.64
36502;BME280;25393;46.108;3.390;2023-05-03T12:00:55;98094.34;;;31.12;29.03
36502;BME280;25393;46.108;3.390;2023-05-03T12:03:24;98081.88;;;31.06;30.09
36502;BME280;25393;46.108;3.390;2023-05-03T12:05:57;98085.75;;;30.68;27.84
36502;BME280;25393;46.108;3.390;2023-05-03T12:08:32;98093.78;;;30.41;29.39
36502;BME280;25393;46.108;3.390;2023-05-03T12:11:02;98084.50;;;30.42;28.99
36502;BME280;25393;46.108;3.390;2023-05-03T12:13:33;98084.63;;;30.32;29.94
36502;BME280;25393;46.108;3.390;2023-05-03T12:16:06;98074.00;;;30.49;30.05
36502;BME280;25393;46.108;3.390;2023-05-03T12:21:13;98062.59;;;30.98;29.78
36502;BME280;25393;46.108;3.390;2023-05-03T12:23:44;98061.94;;;31.19;30.14
36502;BME280;25393;46.108;3.390;2023-05-03T12:26:11;98071.00;;;31.01;29.54
36502;BME280;25393;46.108;3.390;2023-05-03T12:28:40;98059.47;;;31.04;29.54
36502;BME280;25393;46.108;3.390;2023-05-03T12:31:06;98059.06;;;31.11;28.08
36502;BME280;25393;46.108;3.390;2023-05-03T12:33:33;98055.59;;;30.73;28.39
36502;BME280;25393;46.108;3.390;2023-05-03T12:36:04;98046.13;;;30.65;29.34
36502;BME280;25393;46.108;3.390;2023-05-03T12:38:35;98050.28;;;30.44;28.26
36502;BME280;25393;46.108;3.390;2023-05-03T12:41:03;98030.13;;;29.79;28.40
36502;BME280;25393;46.108;3.390;2023-05-03T12:43:34;98032.09;;;29.97;29.13
36502;BME280;25393;46.108;3.390;2023-05-03T12:46:01;98030.91;;;30.03;30.23
36502;BME280;25393;46.108;3.390;2023-05-03T12:48:49;98021.50;;;30.65;29.29
36502;BME280;25393;46.108;3.390;2023-05-03T12:51:19;98002.94;;;30.81;28.73
36502;BME280;25393;46.108;3.390;2023-05-03T12:53:51;98013.00;;;30.86;28.27
36502;BME280;25393;46.108;3.390;2023-05-03T12:56:20;98011.84;;;30.87;29.54
36502;BME280;25393;46.108;3.390;2023-05-03T12:58:51;98005.88;;;30.85;28.24
36502;BME280;25393;46.108;3.390;2023-05-03T13:01:38;98010.94;;;30.78;28.50
36502;BME280;25393;46.108;3.390;2023-05-03T13:04:08;98015.47;;;30.31;30.88
36502;BME280;25393;46.108;3.390;2023-05-03T13:06:54;98010.84;;;29.94;29.43
36502;BME280;25393;46.108;3.390;2023-05-03T13:09:28;98001.31;;;30.10;30.21
36502;BME280;25393;46.108;3.390;2023-05-03T13:12:16;97996.50;;;30.21;30.40
36502;BME280;25393;46.108;3.390;2023-05-03T13:14:49;97995.94;;;30.43;28.23
36502;BME280;25393;46.108;3.390;2023-05-03T13:17:17;97995.09;;;30.61;29.36
36502;BME280;25393;46.108;3.390;2023-05-03T13:19:45;97980.41;;;30.70;29.86
36502;BME280;25393;46.108;3.390;2023-05-03T13:22:16;97990.06;;;30.49;29.36
36502;BME280;25393;46.108;3.390;2023-05-03T13:24:44;97989.25;;;30.81;29.73
36502;BME280;25393;46.108;3.390;2023-05-03T13:27:11;97987.44;;;30.90;30.14
36502;BME280;25393;46.108;3.390;2023-05-03T13:29:38;97984.00;;;30.85;28.35
36502;BME280;25393;46.108;3.390;2023-05-03T13:32:05;97993.69;;;30.26;30.07
36502;BME280;25393;46.108;3.390;2023-05-03T13:34:33;97979.94;;;30.31;30.71
36502;BME280;25393;46.108;3.390;2023-05-03T13:37:00;97989.13;;;31.05;30.64
36502;BME280;25393;46.108;3.390;2023-05-03T13:39:29;97967.06;;;31.56;30.83